Time;durP1;ratioP1;P1;durP2;ratioP2;P2;SDS_P1;SDS_P2;PMS_P1;PMS_P2;Temp;Humidity;BMP_temperature;BMP_pressure;BME280_temperature;BME280_humidity;BME280_pressure;Samples;Min_cycle;Max_cycle;Signal;HPM_P1;HPM_P2
2023/05/12 00:02:22;;;;;;;0.80;0.80;;;19.50;67.80;;;;;;5075211;28;43386;-70
2023/05/12 00:04:50;;;;;;;0.90;0.90;;;19.50;67.80;;;;;;5084594;28;43407;-70
2023/05/12 00:07:18;;;;;;;0.70;0.70;;;19.50;67.60;;;;;;5068088;28;46004;-69
2023/05/12 00:09:46;;;;;;;0.90;0.90;;;19.50;67.50;;;;;;5070746;27;44872;-70
2023/05/12 00:12:14;;;;;;;0.80;0.80;;;19.50;67.40;;;;;;5078500;28;43420;-70
2023/05/12 00:14:41;;;;;;;0.80;0.80;;;19.50;67.50;;;;;;5079317;28;43408;-70
2023/05/12 00:17:12;;;;;;;0.83;0.83;;;19.50;67.80;;;;;;5075128;27;45715;-69
2023/05/12 00:19:42;;;;;;;0.80;0.80;;;19.50;67.80;;;;;;5080132;28;43472;-70
2023/05/12 00:22:15;;;;;;;0.90;0.90;;;19.60;67.60;;;;;;5081680;28;43338;-69
2023/05/12 00:24:43;;;;;;;0.87;0.87;;;19.80;67.10;;;;;;5084342;27;44014;-70
2023/05/12 00:27:12;;;;;;;1.00;1.00;;;19.90;66.70;;;;;;5076261;28;44011;-70
2023/05/12 00:29:40;;;;;;;0.90;0.90;;;19.90;66.60;;;;;;5083866;28;43718;-70
2023/05/12 00:32:08;;;;;;;0.97;0.97;;;19.90;66.50;;;;;;5074276;27;43405;-70
2023/05/12 00:34:37;;;;;;;0.80;0.80;;;19.90;66.50;;;;;;5071746;28;43521;-70
2023/05/12 00:37:06;;;;;;;0.87;0.87;;;19.80;66.60;;;;;;5080358;28;46413;-70
2023/05/12 00:39:33;;;;;;;0.80;0.80;;;19.80;66.80;;;;;;5080993;28;43441;-70
2023/05/12 00:42:02;;;;;;;0.80;0.80;;;19.70;67.30;;;;;;5083649;27;43371;-69
2023/05/12 00:44:29;;;;;;;0.70;0.70;;;19.70;67.40;;;;;;5083446;27;43423;-69
2023/05/12 00:46:57;;;;;;;0.90;0.90;;;19.60;67.20;;;;;;5076500;28;46047;-69
2023/05/12 00:49:25;;;;;;;0.80;0.80;;;19.60;67.20;;;;;;5070364;28;43883;-70
2023/05/12 00:51:58;;;;;;;0.80;0.80;;;19.60;67.30;;;;;;5083646;28;43362;-69
2023/05/12 00:54:26;;;;;;;1.23;1.00;;;19.50;67.70;;;;;;5080069;28;44289;-70
2023/05/12 00:56:54;;;;;;;0.73;0.73;;;19.50;67.80;;;;;;5070623;28;44798;-70
2023/05/12 00:59:23;;;;;;;0.83;0.83;;;19.50;67.50;;;;;;5081099;27;44824;-70
2023/05/12 01:01:53;;;;;;;0.90;0.90;;;19.60;67.50;;;;;;5077437;28;43976;-70
2023/05/12 01:04:23;;;;;;;0.80;0.80;;;19.50;67.50;;;;;;5061565;28;43574;-70
2023/05/12 01:06:56;;;;;;;0.90;0.90;;;19.50;67.80;;;;;;5078389;28;43831;-70
2023/05/12 01:09:24;;;;;;;0.80;0.80;;;19.50;67.90;;;;;;5084322;27;43438;-70
2023/05/12 01:12:01;;;;;;;0.70;0.70;;;19.60;67.90;;;;;;5083073;27;43441;-70
2023/05/12 01:14:30;;;;;;;0.80;0.80;;;19.70;67.40;;;;;;5075784;28;43458;-70
2023/05/12 01:16:59;;;;;;;0.80;0.80;;;19.80;67.00;;;;;;5079343;28;46339;-70
2023/05/12 01:19:34;;;;;;;0.77;0.77;;;19.90;66.90;;;;;;5081552;27;43408;-70
2023/05/12 01:22:04;;;;;;;0.73;0.73;;;19.90;66.80;;;;;;5088768;27;43354;-70
2023/05/12 01:24:32;;;;;;;0.80;0.80;;;19.80;66.70;;;;;;5087119;27;43574;-69
2023/05/12 01:27:01;;;;;;;0.83;0.83;;;19.80;66.90;;;;;;5082628;28;45923;-70
2023/05/12 01:29:30;;;;;;;0.80;0.80;;;19.70;67.10;;;;;;5082193;28;44595;-70
2023/05/12 01:31:59;;;;;;;0.70;0.70;;;19.60;67.50;;;;;;5068646;28;43546;-70
2023/05/12 01:34:28;;;;;;;0.80;0.80;;;19.60;67.50;;;;;;5081290;27;43522;-70
2023/05/12 01:36:56;;;;;;;0.83;0.83;;;19.60;67.40;;;;;;5081321;27;47451;-70
2023/05/12 01:39:24;;;;;;;0.90;0.90;;;19.60;67.40;;;;;;5083048;28;43500;-70
2023/05/12 01:41:52;;;;;;;0.73;0.73;;;19.50;67.30;;;;;;5082480;28;43411;-70
2023/05/12 01:44:22;;;;;;;0.73;0.73;;;19.50;67.80;;;;;;5063813;28;43527;-70
2023/05/12 01:46:50;;;;;;;0.90;0.90;;;19.60;67.90;;;;;;5074776;28;45379;-70
2023/05/12 01:49:18;;;;;;;0.80;0.80;;;19.70;67.80;;;;;;5082825;28;44854;-70
2023/05/12 01:51:47;;;;;;;0.80;0.80;;;19.70;67.40;;;;;;5071477;28;44144;-70
2023/05/12 01:54:19;;;;;;;0.80;0.80;;;19.80;67.30;;;;;;5075465;28;43553;-70
2023/05/12 01:56:47;;;;;;;0.73;0.73;;;19.80;67.20;;;;;;5076191;28;45973;-70
2023/05/12 01:59:15;;;;;;;0.80;0.80;;;19.80;67.50;;;;;;5074719;28;43881;-70
2023/05/12 02:01:45;;;;;;;0.97;0.97;;;19.70;67.40;;;;;;5081473;27;43805;-70
2023/05/12 02:04:17;;;;;;;0.80;0.80;;;19.70;67.20;;;;;;5081190;27;43375;-70
2023/05/12 02:06:47;;;;;;;0.80;0.80;;;19.70;67.30;;;;;;5085259;28;43812;-70
2023/05/12 02:09:15;;;;;;;0.80;0.80;;;19.60;67.30;;;;;;5085430;28;45135;-70
2023/05/12 02:11:43;;;;;;;0.90;0.90;;;19.60;67.90;;;;;;5084381;27;43454;-70
2023/05/12 02:14:11;;;;;;;0.80;0.80;;;19.60;67.90;;;;;;5069396;28;43503;-70
2023/05/12 02:16:39;;;;;;;0.77;0.77;;;19.60;67.80;;;;;;5078843;28;45370;-70
2023/05/12 02:19:09;;;;;;;0.90;0.90;;;19.60;67.60;;;;;;5081670;28;44593;-70
2023/05/12 02:21:37;;;;;;;0.90;0.90;;;19.50;67.50;;;;;;5082242;27;43967;-70
2023/05/12 02:24:05;;;;;;;0.80;0.80;;;19.50;67.80;;;;;;5086343;28;44062;-70
2023/05/12 02:26:35;;;;;;;0.90;0.90;;;19.50;68.00;;;;;;5083038;28;45636;-70
2023/05/12 02:29:03;;;;;;;0.90;0.90;;;19.60;67.90;;;;;;5078925;28;44736;-71
2023/05/12 02:31:31;;;;;;;0.80;0.80;;;19.70;67.60;;;;;;5080443;27;43406;-70
2023/05/12 02:34:00;;;;;;;0.80;0.80;;;19.80;67.20;;;;;;5084987;28;43477;-70
2023/05/12 02:36:29;;;;;;;0.80;0.80;;;19.90;67.00;;;;;;5081799;28;45696;-71
2023/05/12 02:38:57;;;;;;;1.00;1.00;;;19.90;67.00;;;;;;5081255;28;44461;-70
2023/05/12 02:41:25;;;;;;;0.97;0.97;;;19.80;66.80;;;;;;5079139;28;43469;-70
2023/05/12 02:43:54;;;;;;;0.73;0.73;;;19.80;66.90;;;;;;5081410;28;43533;-70
2023/05/12 02:46:23;;;;;;;0.80;0.80;;;19.70;67.10;;;;;;5081761;28;43909;-70
2023/05/12 02:48:51;;;;;;;0.90;0.90;;;19.60;67.70;;;;;;5076278;28;44955;-70
2023/05/12 02:51:21;;;;;;;0.90;0.90;;;19.60;67.70;;;;;;5084315;27;43457;-70
2023/05/12 02:53:51;;;;;;;0.83;0.83;;;19.60;67.50;;;;;;5073085;28;43778;-70
2023/05/12 02:56:22;;;;;;;0.90;0.90;;;19.60;67.60;;;;;;5072024;27;43831;-70
2023/05/12 02:58:50;;;;;;;0.90;0.90;;;19.50;67.50;;;;;;5082499;28;45144;-70
2023/05/12 03:01:18;;;;;;;0.90;0.90;;;19.50;67.90;;;;;;5081223;27;43430;-71
2023/05/12 03:03:46;;;;;;;0.80;0.80;;;19.50;68.00;;;;;;5080103;28;43534;-70
2023/05/12 03:06:14;;;;;;;0.90;0.90;;;19.50;67.80;;;;;;5082068;28;43958;-70
2023/05/12 03:08:42;;;;;;;0.90;0.90;;;19.50;67.80;;;;;;5081688;28;43406;-70
2023/05/12 03:11:12;;;;;;;1.00;1.00;;;19.50;67.80;;;;;;5074164;28;43490;-70
2023/05/12 03:13:39;;;;;;;1.00;1.00;;;19.50;68.00;;;;;;5078010;28;43778;-70
2023/05/12 03:16:08;;;;;;;0.77;0.77;;;19.40;68.10;;;;;;5080308;28;43617;-70
2023/05/12 03:18:36;;;;;;;0.90;0.90;;;19.60;68.20;;;;;;5073183;28;45004;-70
2023/05/12 03:21:05;;;;;;;0.90;0.90;;;19.70;67.70;;;;;;5074319;27;43363;-70
2023/05/12 03:23:36;;;;;;;0.90;0.90;;;19.80;67.20;;;;;;5068103;28;43431;-71
2023/05/12 03:26:04;;;;;;;1.00;1.00;;;19.90;67.10;;;;;;5083318;28;46117;-70
2023/05/12 03:28:33;;;;;;;0.80;0.80;;;19.90;67.00;;;;;;5085011;28;44726;-72
2023/05/12 03:31:01;;;;;;;0.80;0.80;;;19.80;66.90;;;;;;5080032;28;43489;-70
2023/05/12 03:33:30;;;;;;;0.80;0.80;;;19.80;67.00;;;;;;5070516;28;43407;-70
2023/05/12 03:35:58;;;;;;;0.80;0.80;;;19.70;67.20;;;;;;5081991;28;46026;-70
2023/05/12 03:38:27;;;;;;;0.93;0.93;;;19.60;67.70;;;;;;5086198;28;44923;-70
2023/05/12 03:41:03;;;;;;;0.90;0.90;;;19.60;67.80;;;;;;5078937;28;43419;-70
2023/05/12 03:43:33;;;;;;;0.77;0.77;;;19.60;67.60;;;;;;5088192;27;43471;-70
2023/05/12 03:46:01;;;;;;;0.73;0.73;;;19.60;67.60;;;;;;5080916;28;43896;-70
2023/05/12 03:48:30;;;;;;;0.80;0.80;;;19.60;67.70;;;;;;5082903;27;43388;-70
2023/05/12 03:50:58;;;;;;;0.97;0.97;;;19.50;67.80;;;;;;5081751;28;43505;-70
2023/05/12 03:53:29;;;;;;;0.80;0.80;;;19.50;68.10;;;;;;5081871;28;43610;-70
2023/05/12 03:55:57;;;;;;;0.90;0.90;;;19.50;67.90;;;;;;5082019;28;45603;-70
2023/05/12 03:58:26;;;;;;;0.93;0.93;;;19.50;67.80;;;;;;5083854;27;43371;-70
2023/05/12 04:00:58;;;;;;;1.00;1.00;;;19.50;67.80;;;;;;5079105;27;43847;-69
2023/05/12 04:03:26;;;;;;;1.40;1.40;;;19.50;67.90;;;;;;5086461;28;43601;-70
2023/05/12 04:05:58;;;;;;;1.30;1.30;;;19.50;68.30;;;;;;5080406;28;46050;-70
2023/05/12 04:08:26;;;;;;;1.60;1.50;;;19.50;68.20;;;;;;5079453;28;45090;-70
2023/05/12 04:10:55;;;;;;;1.43;1.40;;;19.60;67.90;;;;;;5077222;28;43542;-70
2023/05/12 04:13:22;;;;;;;2.67;1.60;;;19.80;67.50;;;;;;5082926;27;43550;-70
2023/05/12 04:15:51;;;;;;;1.63;1.53;;;19.90;67.30;;;;;;5068873;28;43987;-70
2023/05/12 04:18:20;;;;;;;1.80;1.70;;;19.90;67.10;;;;;;5073418;28;43408;-70
2023/05/12 04:20:49;;;;;;;2.50;2.27;;;19.90;67.00;;;;;;5074388;28;43461;-71
2023/05/12 04:23:17;;;;;;;2.73;1.70;;;19.80;67.00;;;;;;5074047;28;43430;-70
2023/05/12 04:25:46;;;;;;;2.20;2.00;;;19.70;67.10;;;;;;5079332;28;46297;-70
2023/05/12 04:28:14;;;;;;;2.17;1.97;;;19.70;67.60;;;;;;5077816;27;43477;-70
2023/05/12 04:30:43;;;;;;;4.10;2.33;;;19.60;67.80;;;;;;5083309;28;43414;-70
2023/05/12 04:33:11;;;;;;;3.17;2.53;;;19.60;67.70;;;;;;5069180;28;43407;-71
2023/05/12 04:35:41;;;;;;;3.03;2.37;;;19.60;67.70;;;;;;5077944;28;44841;-70
2023/05/12 04:38:12;;;;;;;3.03;2.27;;;19.50;67.70;;;;;;5074914;27;43557;-70
2023/05/12 04:40:40;;;;;;;3.97;2.67;;;19.50;67.90;;;;;;5067956;28;43432;-70
2023/05/12 04:43:08;;;;;;;4.07;2.80;;;19.50;68.10;;;;;;5069898;28;43533;-70
2023/05/12 04:45:56;;;;;;;3.13;2.83;;;19.50;67.90;;;;;;5071188;28;44733;-70
2023/05/12 04:48:27;;;;;;;4.67;2.80;;;19.50;67.80;;;;;;5065771;28;44698;-70
2023/05/12 04:50:58;;;;;;;3.53;2.77;;;19.50;68.00;;;;;;5068876;28;43399;-70
2023/05/12 04:53:26;;;;;;;3.13;2.70;;;19.50;68.10;;;;;;5088237;27;43476;-70
2023/05/12 04:55:55;;;;;;;4.67;2.73;;;19.50;68.40;;;;;;5083138;28;46009;-70
2023/05/12 04:58:23;;;;;;;4.53;2.83;;;19.60;68.30;;;;;;5080280;28;44977;-70
2023/05/12 05:00:52;;;;;;;3.37;2.50;;;19.70;68.00;;;;;;5082154;27;43413;-70
2023/05/12 05:03:22;;;;;;;5.30;2.80;;;19.80;67.50;;;;;;5079252;27;43498;-70
2023/05/12 05:05:50;;;;;;;4.30;3.03;;;19.90;67.40;;;;;;5079245;28;43842;-70
2023/05/12 05:08:20;;;;;;;3.83;2.90;;;19.90;67.20;;;;;;5084420;28;43885;-70
2023/05/12 05:10:48;;;;;;;3.27;2.80;;;19.80;67.00;;;;;;5080520;27;43388;-70
2023/05/12 05:13:16;;;;;;;2.87;2.67;;;19.80;67.20;;;;;;5080835;28;43506;-71
2023/05/12 05:15:50;;;;;;;3.43;2.67;;;19.70;67.30;;;;;;5078330;27;45707;-70
2023/05/12 05:18:18;;;;;;;3.00;2.80;;;19.60;67.80;;;;;;5082731;27;43402;-70
2023/05/12 05:20:51;;;;;;;4.37;2.77;;;19.60;67.90;;;;;;5085566;27;43449;-70
2023/05/12 05:23:26;;;;;;;3.20;2.80;;;19.60;67.90;;;;;;5086106;28;43568;-70
2023/05/12 05:25:55;;;;;;;2.77;2.57;;;19.60;67.90;;;;;;5080348;28;45557;-71
2023/05/12 05:28:25;;;;;;;3.20;2.90;;;19.60;67.90;;;;;;5080350;28;43679;-70
2023/05/12 05:30:53;;;;;;;2.67;2.40;;;19.50;68.10;;;;;;5069450;28;43394;-70
2023/05/12 05:33:21;;;;;;;2.83;2.57;;;19.50;68.90;;;;;;5083082;28;43458;-70
2023/05/12 05:35:49;;;;;;;2.83;2.63;;;19.50;68.00;;;;;;5086157;28;45839;-70
2023/05/12 05:38:17;;;;;;;2.70;2.50;;;19.50;67.90;;;;;;5078357;28;43949;-70
2023/05/12 05:40:46;;;;;;;2.70;2.50;;;19.50;68.00;;;;;;5085470;28;43395;-70
2023/05/12 05:43:22;;;;;;;3.07;2.83;;;19.40;68.10;;;;;;5085623;28;44092;-70
2023/05/12 05:45:50;;;;;;;3.00;2.70;;;19.50;68.50;;;;;;5081267;27;43961;-70
2023/05/12 05:48:20;;;;;;;2.57;2.43;;;19.50;68.30;;;;;;5086644;28;44707;-70
2023/05/12 05:50:49;;;;;;;2.63;2.43;;;19.60;67.90;;;;;;5081011;27;43382;-70
2023/05/12 05:53:18;;;;;;;2.93;2.63;;;19.80;67.50;;;;;;5081324;27;43581;-70
2023/05/12 05:55:48;;;;;;;3.13;2.80;;;19.90;67.40;;;;;;5078646;28;45742;-70
2023/05/12 05:58:16;;;;;;;2.43;2.30;;;19.90;67.20;;;;;;5077828;27;44845;-70
2023/05/12 06:00:45;;;;;;;2.63;2.43;;;19.80;67.00;;;;;;5084470;28;43844;-70
2023/05/12 06:03:14;;;;;;;2.50;2.30;;;19.80;67.20;;;;;;5088241;28;43558;-70
2023/05/12 06:05:44;;;;;;;2.47;2.27;;;19.70;67.40;;;;;;5082170;28;45742;-70
2023/05/12 06:08:12;;;;;;;2.40;2.20;;;19.70;68.00;;;;;;5080854;28;44765;-70
2023/05/12 06:10:40;;;;;;;2.93;2.63;;;19.60;67.90;;;;;;5077856;28;43550;-71
2023/05/12 06:13:10;;;;;;;2.43;2.33;;;19.60;67.80;;;;;;5077595;28;43451;-70
2023/05/12 06:15:38;;;;;;;2.40;2.20;;;19.60;67.90;;;;;;5078040;28;45493;-70
2023/05/12 06:18:06;;;;;;;3.33;2.77;;;19.60;67.90;;;;;;5086911;28;43435;-70
2023/05/12 06:20:35;;;;;;;2.33;2.23;;;19.50;68.20;;;;;;5088409;27;43355;-70
2023/05/12 06:23:04;;;;;;;2.80;2.60;;;19.50;68.40;;;;;;5079798;28;43468;-70
2023/05/12 06:25:32;;;;;;;2.83;2.63;;;19.60;68.20;;;;;;5085332;28;45876;-73
2023/05/12 06:28:01;;;;;;;2.17;2.07;;;19.70;68.00;;;;;;5080836;28;43418;-70
2023/05/12 06:30:33;;;;;;;2.80;2.60;;;19.70;67.90;;;;;;5079663;28;43450;-70
2023/05/12 06:33:01;;;;;;;2.33;2.23;;;19.70;67.80;;;;;;5075483;28;43564;-70
2023/05/12 06:35:29;;;;;;;2.60;2.50;;;19.70;68.00;;;;;;5084964;28;43894;-70
2023/05/12 06:37:57;;;;;;;2.50;2.40;;;19.70;68.00;;;;;;5083122;27;44078;-71
2023/05/12 06:40:25;;;;;;;2.60;2.40;;;19.60;67.80;;;;;;5072642;27;43428;-70
2023/05/12 06:42:53;;;;;;;2.70;2.50;;;19.60;67.80;;;;;;5074154;28;43482;-70
2023/05/12 06:45:22;;;;;;;2.47;2.30;;;19.60;67.90;;;;;;5081140;28;43916;-70
2023/05/12 06:47:52;;;;;;;2.97;2.70;;;19.50;68.20;;;;;;5076817;28;44644;-71
2023/05/12 06:50:20;;;;;;;2.20;2.10;;;19.50;68.20;;;;;;5081891;28;43481;-70
2023/05/12 06:52:52;;;;;;;2.73;2.63;;;19.50;68.20;;;;;;5081549;28;43570;-70
2023/05/12 06:55:21;;;;;;;2.47;2.37;;;19.50;68.10;;;;;;5076044;28;45779;-70
2023/05/12 06:57:54;;;;;;;2.43;2.33;;;19.50;68.20;;;;;;5082833;27;43448;-70
2023/05/12 07:00:23;;;;;;;2.70;2.50;;;19.50;68.50;;;;;;5081456;28;43460;-70
2023/05/12 07:02:54;;;;;;;2.23;2.13;;;19.50;68.60;;;;;;5085129;28;43406;-70
2023/05/12 07:05:22;;;;;;;2.80;2.60;;;19.60;68.40;;;;;;5084212;28;45962;-70
2023/05/12 07:07:51;;;;;;;2.43;2.33;;;19.70;68.10;;;;;;5074988;28;44596;-70
2023/05/12 07:10:20;;;;;;;2.47;2.37;;;19.70;67.90;;;;;;5085208;28;43374;-69
2023/05/12 07:12:48;;;;;;;2.60;2.50;;;19.70;67.60;;;;;;5086068;28;43543;-70
2023/05/12 07:15:19;;;;;;;2.43;2.33;;;19.70;68.00;;;;;;5081698;28;43923;-70
2023/05/12 07:17:48;;;;;;;2.37;2.27;;;19.70;68.00;;;;;;5083463;28;43452;-70
2023/05/12 07:20:18;;;;;;;2.60;2.40;;;19.70;68.00;;;;;;5075645;27;43429;-70
2023/05/12 07:22:53;;;;;;;2.17;2.07;;;19.60;67.80;;;;;;5079347;28;43447;-70
2023/05/12 07:25:21;;;;;;;2.80;2.60;;;19.60;67.90;;;;;;5080439;27;43547;-70
2023/05/12 07:27:49;;;;;;;2.40;2.30;;;19.60;68.20;;;;;;5082070;27;43459;-70
2023/05/12 07:30:17;;;;;;;2.33;2.13;;;19.60;68.30;;;;;;5075748;28;43452;-70
2023/05/12 07:32:45;;;;;;;2.57;2.47;;;19.60;68.20;;;;;;5080024;28;43407;-70
2023/05/12 07:35:13;;;;;;;2.00;2.00;;;19.50;68.10;;;;;;5081602;27;43595;-70
2023/05/12 07:37:43;;;;;;;2.40;2.30;;;19.50;68.20;;;;;;5087201;28;43525;-70
2023/05/12 07:40:11;;;;;;;2.33;2.23;;;19.50;68.30;;;;;;5085841;28;43381;-70
2023/05/12 07:42:39;;;;;;;2.40;2.30;;;19.50;68.60;;;;;;5088855;28;43468;-70
2023/05/12 07:45:08;;;;;;;2.00;1.90;;;19.50;68.50;;;;;;5082304;28;43964;-70
2023/05/12 07:47:36;;;;;;;2.53;2.33;;;19.60;68.20;;;;;;5089277;28;43367;-70
2023/05/12 07:50:04;;;;;;;2.10;2.00;;;19.70;68.00;;;;;;5089190;28;43404;-70
2023/05/12 07:52:32;;;;;;;2.77;2.60;;;19.70;67.90;;;;;;5086597;27;43394;-72
2023/05/12 07:55:02;;;;;;;2.47;2.37;;;19.70;68.00;;;;;;5089258;28;43930;-70
2023/05/12 07:57:30;;;;;;;2.50;2.40;;;19.70;68.10;;;;;;5089694;28;43427;-70
2023/05/12 07:59:59;;;;;;;2.10;2.00;;;19.60;67.90;;;;;;5087047;28;43528;-70
2023/05/12 08:02:27;;;;;;;2.23;2.10;;;19.60;67.90;;;;;;5088827;28;43566;-70
2023/05/12 08:04:55;;;;;;;2.10;2.00;;;19.60;67.90;;;;;;5077788;28;46263;-70
2023/05/12 08:07:23;;;;;;;2.10;2.00;;;19.60;68.00;;;;;;5089084;28;43336;-70
2023/05/12 08:09:51;;;;;;;2.03;1.93;;;19.50;68.40;;;;;;5091601;28;43457;-70
2023/05/12 08:12:21;;;;;;;2.30;2.20;;;19.50;68.50;;;;;;5084949;28;43536;-70
2023/05/12 08:14:49;;;;;;;2.33;2.23;;;19.50;68.30;;;;;;5081946;28;43935;-70
2023/05/12 08:17:17;;;;;;;2.20;2.10;;;19.50;68.30;;;;;;5087730;27;44367;-70
2023/05/12 08:19:45;;;;;;;2.23;2.13;;;19.40;68.20;;;;;;5078085;28;43370;-70
2023/05/12 08:22:13;;;;;;;2.17;2.07;;;19.50;68.50;;;;;;5086424;28;43871;-70
2023/05/12 08:24:43;;;;;;;2.17;2.07;;;19.50;68.80;;;;;;5083403;27;43774;-70
2023/05/12 08:27:11;;;;;;;2.17;2.07;;;19.50;68.70;;;;;;5081643;28;44743;-70
2023/05/12 08:29:40;;;;;;;2.50;2.30;;;19.60;68.30;;;;;;5087045;28;43878;-70
2023/05/12 08:32:08;;;;;;;2.10;2.00;;;19.80;68.00;;;;;;5079050;28;43510;-70
2023/05/12 08:34:36;;;;;;;2.33;2.23;;;19.80;67.70;;;;;;5071458;28;45692;-70
2023/05/12 08:37:05;;;;;;;1.80;1.80;;;19.80;67.60;;;;;;5083241;28;43418;-70
2023/05/12 08:39:33;;;;;;;2.00;1.90;;;19.80;67.60;;;;;;5082961;27;43417;-70
2023/05/12 08:42:08;;;;;;;2.03;1.93;;;19.70;67.70;;;;;;5089695;27;43925;-71
2023/05/12 08:44:36;;;;;;;2.40;2.30;;;19.60;67.90;;;;;;5082016;28;43762;-70
2023/05/12 08:47:06;;;;;;;1.90;1.90;;;19.60;68.30;;;;;;5077806;27;43335;-70
2023/05/12 08:49:35;;;;;;;2.20;2.10;;;19.60;68.50;;;;;;5085346;28;43429;-71
2023/05/12 08:52:03;;;;;;;2.03;1.93;;;19.50;68.20;;;;;;5086368;28;43434;-71
2023/05/12 08:54:32;;;;;;;2.10;2.03;;;19.50;68.20;;;;;;5088922;27;43907;-70
2023/05/12 08:57:01;;;;;;;2.00;1.90;;;19.50;68.30;;;;;;5085780;27;43457;-70
2023/05/12 08:59:34;;;;;;;1.90;1.80;;;19.40;68.50;;;;;;5082241;27;43554;-70
2023/05/12 09:02:03;;;;;;;2.23;2.13;;;19.50;68.80;;;;;;5082723;28;43450;-70
2023/05/12 09:04:32;;;;;;;2.17;2.07;;;19.50;68.60;;;;;;5083490;28;45687;-70
2023/05/12 09:07:01;;;;;;;1.90;1.90;;;19.50;68.50;;;;;;5085409;28;43458;-70
2023/05/12 09:09:28;;;;;;;2.00;2.00;;;19.50;68.60;;;;;;5084476;28;43438;-70
2023/05/12 09:11:56;;;;;;;1.93;1.83;;;19.40;68.60;;;;;;5091171;28;43458;-70
2023/05/12 09:14:27;;;;;;;1.83;1.73;;;19.40;68.80;;;;;;5079353;28;44956;-70
2023/05/12 09:16:59;;;;;;;2.27;2.17;;;19.50;68.80;;;;;;5084995;28;43356;-71
2023/05/12 09:19:27;;;;;;;2.17;2.07;;;19.60;68.30;;;;;;5090202;28;43441;-70
2023/05/12 09:21:57;;;;;;;2.33;2.23;;;19.80;68.10;;;;;;5075829;27;44105;-70
2023/05/12 09:24:33;;;;;;;1.73;1.73;;;19.80;67.70;;;;;;5080279;28;43932;-70
2023/05/12 09:27:02;;;;;;;1.90;1.90;;;19.80;67.60;;;;;;5076467;28;45000;-70
2023/05/12 09:29:31;;;;;;;2.10;2.00;;;19.80;67.60;;;;;;5077822;27;44490;-70
2023/05/12 09:32:09;;;;;;;1.67;1.67;;;19.70;67.70;;;;;;5073261;27;43474;-70
2023/05/12 09:34:39;;;;;;;1.87;1.87;;;19.60;67.90;;;;;;5082989;28;43827;-70
2023/05/12 09:37:09;;;;;;;2.07;1.97;;;19.60;68.30;;;;;;5082419;28;45117;-70
2023/05/12 09:39:39;;;;;;;2.10;2.00;;;19.60;68.30;;;;;;5081738;28;43409;-70
2023/05/12 09:42:11;;;;;;;1.70;1.70;;;19.60;68.30;;;;;;5083406;28;43489;-70
2023/05/12 09:44:39;;;;;;;1.80;1.80;;;19.50;68.20;;;;;;5083151;28;43877;-70
2023/05/12 09:47:09;;;;;;;1.67;1.67;;;19.50;68.40;;;;;;5086132;28;43375;-69
2023/05/12 09:49:37;;;;;;;1.83;1.83;;;19.40;68.70;;;;;;5082986;28;43388;-70
2023/05/12 09:52:05;;;;;;;1.80;1.80;;;19.50;68.70;;;;;;5083182;28;43445;-71
2023/05/12 09:54:35;;;;;;;2.00;1.90;;;19.50;68.50;;;;;;5088233;28;43942;-71
2023/05/12 09:57:03;;;;;;;2.00;1.90;;;19.50;68.60;;;;;;5078546;28;43450;-70
2023/05/12 09:59:33;;;;;;;2.03;1.93;;;19.40;68.60;;;;;;5083212;28;43739;-71
2023/05/12 10:02:03;;;;;;;1.60;1.60;;;19.40;69.00;;;;;;5081261;28;43575;-70
2023/05/12 10:04:38;;;;;;;1.80;1.70;;;19.40;69.00;;;;;;5084489;28;45437;-70
2023/05/12 10:07:07;;;;;;;1.90;1.90;;;19.60;68.80;;;;;;5080551;27;43340;-70
2023/05/12 10:09:38;;;;;;;1.63;1.63;;;19.60;68.30;;;;;;5084540;28;43397;-70
2023/05/12 10:12:06;;;;;;;1.80;1.70;;;19.70;68.20;;;;;;5070779;28;43885;-70
2023/05/12 10:14:34;;;;;;;1.80;1.80;;;19.60;67.90;;;;;;5079124;28;43845;-71
2023/05/12 10:17:02;;;;;;;2.13;2.03;;;19.60;68.30;;;;;;5077755;28;43346;-73
2023/05/12 10:19:31;;;;;;;1.73;1.73;;;19.60;68.40;;;;;;5078995;28;43398;-71
2023/05/12 10:21:58;;;;;;;2.00;1.90;;;19.60;68.20;;;;;;5086561;28;43488;-71
2023/05/12 10:24:27;;;;;;;1.70;1.70;;;19.60;68.20;;;;;;5075215;28;44011;-72
2023/05/12 10:26:58;;;;;;;1.83;1.83;;;19.60;68.30;;;;;;5073103;27;43436;-70
2023/05/12 10:29:29;;;;;;;1.90;1.90;;;19.50;68.50;;;;;;5081465;28;43352;-70
2023/05/12 10:31:58;;;;;;;1.50;1.50;;;19.50;68.80;;;;;;5088319;27;43359;-70
2023/05/12 10:34:33;;;;;;;1.63;1.63;;;19.50;68.60;;;;;;5086815;27;43860;-70
2023/05/12 10:37:02;;;;;;;1.60;1.60;;;19.50;68.50;;;;;;5080340;28;43442;-72
2023/05/12 10:39:31;;;;;;;1.73;1.73;;;19.40;68.50;;;;;;5078610;27;43550;-70
2023/05/12 10:42:07;;;;;;;1.40;1.40;;;19.40;68.70;;;;;;5082442;28;43893;-70
2023/05/12 10:44:35;;;;;;;1.70;1.70;;;19.40;69.00;;;;;;5082659;27;43637;-70
2023/05/12 10:47:03;;;;;;;1.77;1.77;;;19.50;69.00;;;;;;5078721;28;45186;-70
2023/05/12 10:49:32;;;;;;;1.60;1.60;;;19.60;68.60;;;;;;5081057;28;43513;-69
2023/05/12 10:52:00;;;;;;;1.60;1.60;;;19.60;68.30;;;;;;5084859;28;43574;-69
2023/05/12 10:54:28;;;;;;;1.67;1.67;;;19.60;68.00;;;;;;5077496;28;44969;-70
2023/05/12 10:56:58;;;;;;;1.60;1.60;;;19.60;68.20;;;;;;5078257;28;45117;-70
2023/05/12 10:59:28;;;;;;;1.87;1.80;;;19.60;68.40;;;;;;5083942;28;43458;-70
2023/05/12 11:02:01;;;;;;;1.47;1.47;;;19.60;68.30;;;;;;5083193;28;43477;-70
2023/05/12 11:04:42;;;;;;;1.50;1.50;;;19.60;68.20;;;;;;5076720;28;45891;-70
2023/05/12 11:07:12;;;;;;;1.57;1.57;;;19.60;68.30;;;;;;5060792;28;43514;-70
2023/05/12 11:09:42;;;;;;;1.70;1.70;;;19.50;68.40;;;;;;5082088;27;43421;-69
2023/05/12 11:12:25;;;;;;;1.50;1.50;;;19.50;68.80;;;;;;5083721;27;43439;-70
2023/05/12 11:14:54;;;;;;;1.43;1.43;;;19.50;68.70;;;;;;5074462;27;45548;-70
2023/05/12 11:17:22;;;;;;;1.70;1.70;;;19.50;68.60;;;;;;5077535;28;44739;-70
2023/05/12 11:19:51;;;;;;;1.50;1.50;;;19.50;68.60;;;;;;5084689;27;43459;-69
2023/05/12 11:22:20;;;;;;;1.70;1.70;;;19.50;68.80;;;;;;5079378;27;43523;-69
2023/05/12 11:24:48;;;;;;;1.80;1.80;;;19.50;69.10;;;;;;5074119;28;45615;-69
2023/05/12 11:27:19;;;;;;;1.43;1.43;;;19.50;68.80;;;;;;5079945;28;43620;-69
2023/05/12 11:29:56;;;;;;;1.53;1.53;;;19.50;68.80;;;;;;5080099;28;43445;-69
2023/05/12 11:32:24;;;;;;;1.60;1.60;;;19.40;68.70;;;;;;5078097;28;44181;-70
2023/05/12 11:34:52;;;;;;;1.70;1.60;;;19.50;68.80;;;;;;5079713;28;43652;-69
2023/05/12 11:37:20;;;;;;;1.80;1.80;;;19.40;69.10;;;;;;5075946;28;44715;-69
2023/05/12 11:39:48;;;;;;;1.40;1.40;;;19.50;69.20;;;;;;5083296;28;43400;-69
2023/05/12 11:42:16;;;;;;;1.50;1.50;;;19.60;69.00;;;;;;5078352;28;43711;-69
2023/05/12 11:44:48;;;;;;;1.70;1.70;;;19.70;68.50;;;;;;5073147;28;43877;-69
2023/05/12 11:47:19;;;;;;;1.40;1.40;;;19.80;68.10;;;;;;5070861;28;43470;-70
2023/05/12 11:49:47;;;;;;;1.70;1.70;;;19.80;67.90;;;;;;5072044;28;43461;-69
2023/05/12 11:52:16;;;;;;;1.70;1.60;;;19.80;67.80;;;;;;5072786;28;43932;-69
2023/05/12 11:54:48;;;;;;;1.60;1.60;;;19.80;67.90;;;;;;5074948;28;43945;-70
2023/05/12 11:57:25;;;;;;;1.40;1.40;;;19.70;68.00;;;;;;5059135;28;43525;-69
2023/05/12 11:59:56;;;;;;;1.67;1.67;;;19.60;68.30;;;;;;5072831;28;43406;-69
2023/05/12 12:02:28;;;;;;;1.63;1.63;;;19.60;68.50;;;;;;5083260;28;43483;-69
2023/05/12 12:04:56;;;;;;;1.67;1.67;;;19.60;68.50;;;;;;5081635;28;45742;-68
2023/05/12 12:07:31;;;;;;;1.70;1.70;;;19.60;68.50;;;;;;5068265;27;44540;-71
2023/05/12 12:09:59;;;;;;;1.77;1.73;;;19.50;68.50;;;;;;5062218;28;43473;-70
2023/05/12 12:12:27;;;;;;;1.60;1.60;;;19.50;68.70;;;;;;5057920;28;43415;-71
2023/05/12 12:14:58;;;;;;;1.73;1.73;;;19.40;69.00;;;;;;5065096;28;43741;-71
2023/05/12 12:17:30;;;;;;;1.80;1.80;;;19.50;68.90;;;;;;5071527;27;44038;-70
2023/05/12 12:20:01;;;;;;;1.57;1.57;;;19.60;68.60;;;;;;5069372;28;43433;-71
2023/05/12 12:22:32;;;;;;;1.50;1.50;;;19.60;68.40;;;;;;5072504;28;43485;-70
2023/05/12 12:25:00;;;;;;;1.60;1.60;;;19.60;68.20;;;;;;5077701;28;43685;-70
2023/05/12 12:27:28;;;;;;;1.50;1.50;;;19.60;68.60;;;;;;5075231;28;43963;-70
2023/05/12 12:29:56;;;;;;;1.73;1.73;;;19.60;68.60;;;;;;5064032;28;44110;-70
2023/05/12 12:32:24;;;;;;;1.77;1.70;;;19.60;68.40;;;;;;5072128;28;43408;-70
2023/05/12 12:34:58;;;;;;;1.40;1.40;;;19.60;68.40;;;;;;5083433;27;43823;-70
2023/05/12 12:37:26;;;;;;;1.50;1.50;;;19.60;68.50;;;;;;5084988;28;44554;-70
2023/05/12 12:39:54;;;;;;;1.60;1.60;;;19.50;68.60;;;;;;5079199;28;43463;-70
2023/05/12 12:42:22;;;;;;;1.63;1.63;;;19.50;69.00;;;;;;5079209;27;43543;-70
2023/05/12 12:44:51;;;;;;;1.87;1.87;;;19.50;68.90;;;;;;5077794;28;45935;-72
2023/05/12 12:47:22;;;;;;;1.60;1.60;;;19.40;68.70;;;;;;5082255;27;44437;-70
2023/05/12 12:49:50;;;;;;;1.53;1.53;;;19.40;68.60;;;;;;5086559;28;43366;-70
2023/05/12 12:52:19;;;;;;;1.40;1.40;;;19.50;68.80;;;;;;5077158;28;43402;-70
2023/05/12 12:54:48;;;;;;;1.47;1.47;;;19.40;68.90;;;;;;5076430;28;45665;-70
2023/05/12 12:57:16;;;;;;;1.67;1.67;;;19.40;69.20;;;;;;5073385;27;43952;-70
2023/05/12 12:59:43;;;;;;;1.80;1.80;;;19.50;69.00;;;;;;5071672;28;43865;-70